Time;durP1;ratioP1;P1;durP2;ratioP2;P2;SDS_P1;SDS_P2;PMS_P1;PMS_P2;Temp;Humidity;BMP_temperature;BMP_pressure;BME280_temperature;BME280_humidity;BME280_pressure;Samples;Min_cycle;Max_cycle;Signal;HPM_P1;HPM_P2
2021/01/27 00:03:30;;;;;;;12.47;7.77;;;;;;;0.59;81.76;100232.66;4844742;59;1136413;-93
2021/01/27 00:08:36;;;;;;;11.37;6.27;;;;;;;0.54;81.71;100234.59;4873756;58;1136276;-93
2021/01/27 00:13:41;;;;;;;18.97;9.60;;;;;;;0.46;81.51;100230.63;4874590;58;1136552;-94
2021/01/27 00:18:46;;;;;;;11.67;5.73;;;;;;;0.40;81.80;100232.16;4913313;58;1137106;-93
2021/01/27 00:23:52;;;;;;;15.87;7.70;;;;;;;0.34;81.83;100233.25;4876698;58;1136371;-92
2021/01/27 00:28:57;;;;;;;14.97;6.93;;;;;;;0.27;81.90;100235.27;4930843;58;1136307;-94
2021/01/27 00:34:03;;;;;;;17.10;8.60;;;;;;;0.18;81.93;100238.21;4885338;58;1136362;-94
2021/01/27 00:39:09;;;;;;;12.23;6.43;;;;;;;0.13;82.10;100249.72;4887468;59;1136381;-94
2021/01/27 00:44:14;;;;;;;10.50;5.93;;;;;;;0.10;82.22;100249.83;4877410;58;1136436;-93
2021/01/27 00:49:20;;;;;;;12.17;5.43;;;;;;;0.07;82.46;100253.84;4877279;58;1136339;-93
2021/01/27 00:54:25;;;;;;;10.23;5.93;;;;;;;0.07;82.64;100259.89;4888034;59;1136400;-94
2021/01/27 00:59:32;;;;;;;16.50;8.00;;;;;;;0.09;82.75;100258.54;4911018;58;1134602;-92
2021/01/27 01:04:38;;;;;;;16.90;7.03;;;;;;;0.10;82.73;100264.98;4942693;58;1136344;-94
2021/01/27 01:09:43;;;;;;;15.70;7.70;;;;;;;0.11;82.69;100258.88;4878250;58;1136609;-94
2021/01/27 01:14:49;;;;;;;8.47;5.90;;;;;;;0.12;82.46;100264.92;4891907;57;1136334;-94
2021/01/27 01:19:55;;;;;;;12.40;6.65;;;;;;;0.13;82.21;100261.42;4867187;58;1142323;-93
2021/01/27 01:25:00;;;;;;;10.13;5.97;;;;;;;0.15;82.30;100256.56;4810914;59;1136302;-95
2021/01/27 01:30:20;;;;;;;14.23;5.75;;;;;;;0.17;81.81;100259.07;4866283;58;1137683;-94
2021/01/27 01:35:27;;;;;;;15.23;7.47;;;;;;;0.18;81.99;100266.81;4881436;58;1136352;-94
2021/01/27 01:40:43;;;;;;;5.80;3.20;;;;;;;0.19;81.97;100264.61;4841011;58;1136376;-93
2021/01/27 01:45:53;;;;;;;12.90;6.30;;;;;;;0.19;81.50;100258.56;4863618;58;1134307;-95
2021/01/27 01:51:30;;;;;;;8.57;4.87;;;;;;;0.20;81.78;100265.00;4902899;59;1137043;-95
2021/01/27 01:56:39;;;;;;;14.30;6.40;;;;;;;0.21;81.41;100262.80;4805865;59;1134861;-94
2021/01/27 02:01:48;;;;;;;9.03;5.23;;;;;;;0.22;81.23;100255.39;4753405;60;1136422;-93
2021/01/27 02:06:54;;;;;;;14.90;7.10;;;;;;;0.25;81.41;100264.84;4717129;59;1134566;-94
2021/01/27 02:12:16;;;;;;;13.10;6.37;;;;;;;0.25;80.82;100260.94;4880313;58;1136382;-94
2021/01/27 02:17:47;;;;;;;6.33;3.58;;;;;;;0.25;80.84;100264.37;4836446;58;1136358;-93
2021/01/27 02:23:26;;;;;;;17.53;7.93;;;;;;;0.28;80.81;100269.47;4869270;58;1134230;-93
2021/01/27 02:29:06;;;;;;;9.73;4.60;;;;;;;0.28;80.42;100266.87;4872293;57;1137581;-93
2021/01/27 02:34:33;;;;;;;12.40;6.27;;;;;;;0.29;79.84;100265.97;4781510;58;1134405;-93
2021/01/27 02:39:45;;;;;;;11.70;7.20;;;;;;;0.30;80.12;100265.06;4789886;58;1136873;-94
2021/01/27 02:45:04;;;;;;;10.27;4.57;;;;;;;0.34;80.27;100269.20;4774228;59;1136935;-93
2021/01/27 02:50:35;;;;;;;9.63;3.83;;;;;;;0.34;80.04;100263.16;4776661;59;1136633;-94
2021/01/27 02:55:48;;;;;;;5.77;3.50;;;;;;;0.33;79.65;100262.31;4868167;58;1132790;-95
2021/01/27 03:00:58;;;;;;;5.95;3.80;;;;;;;0.33;80.05;100263.61;4910830;58;21135;-94
2021/01/27 03:06:08;;;;;;;6.62;2.92;;;;;;;0.34;79.77;100272.27;4725088;59;1130230;-94
2021/01/27 03:11:24;;;;;;;8.83;5.07;;;;;;;0.32;79.90;100264.52;4847533;59;1134292;-95
2021/01/27 03:16:42;;;;;;;10.07;4.07;;;;;;;0.33;80.24;100272.72;4882146;58;1134396;-93
2021/01/27 03:21:58;;;;;;;8.27;3.43;;;;;;;0.30;80.25;100277.22;4826452;59;1136465;-94
2021/01/27 03:27:21;;;;;;;10.28;4.92;;;;;;;0.29;80.44;100283.32;4893536;57;1134362;-94
2021/01/27 03:32:40;;;;;;;9.50;4.20;;;;;;;0.29;80.61;100288.52;4899477;57;1136364;-94
2021/01/27 03:37:56;;;;;;;4.58;2.52;;;;;;;0.29;80.60;100287.22;4855957;57;1135144;-94
2021/01/27 03:43:24;;;;;;;5.80;3.57;;;;;;;0.25;80.42;100281.28;4897520;57;1134349;-94
2021/01/27 03:48:46;;;;;;;4.77;2.70;;;;;;;0.24;80.57;100283.95;4883596;59;1134365;-94
2021/01/27 03:53:53;;;;;;;10.63;5.10;;;;;;;0.23;80.53;100291.35;4912594;59;1132099;-95
2021/01/27 03:58:59;;;;;;;4.17;2.40;;;;;;;0.22;80.63;100294.41;4848346;59;1136619;-93
2021/01/27 04:04:05;;;;;;;5.17;1.93;;;;;;;0.23;80.62;100292.65;4824770;59;21280;-94
2021/01/27 04:09:11;;;;;;;6.65;3.27;;;;;;;0.23;80.45;100293.95;4870918;57;1130221;-94
2021/01/27 04:14:19;;;;;;;4.93;2.20;;;;;;;0.22;80.43;100294.41;4892964;57;1134220;-93
2021/01/27 04:19:24;;;;;;;4.10;2.57;;;;;;;0.21;80.25;100290.11;4881677;57;1134338;-92
2021/01/27 04:24:30;;;;;;;5.80;2.90;;;;;;;0.20;80.10;100293.61;4875853;57;1134406;-94
2021/01/27 04:29:35;;;;;;;41.03;9.63;;;;;;;0.20;80.20;100304.02;4909178;57;1134333;-94
2021/01/27 04:34:41;;;;;;;4.93;2.33;;;;;;;0.19;80.00;100305.37;4896578;57;1136455;-94
2021/01/27 04:39:46;;;;;;;4.93;2.20;;;;;;;0.18;79.95;100305.82;4883578;58;1134212;-95
2021/01/27 04:44:57;;;;;;;3.03;1.80;;;;;;;0.20;80.00;100310.52;4889369;57;1134436;-94
2021/01/27 04:50:07;;;;;;;3.60;2.60;;;;;;;0.19;79.96;100309.27;4870656;59;1134248;-94
2021/01/27 04:55:32;;;;;;;4.43;2.23;;;;;;;0.19;79.81;100305.37;4830562;59;1134707;-94
2021/01/27 05:01:11;;;;;;;2.70;2.10;;;;;;;0.18;79.28;100308.42;4910411;57;1134150;-94
2021/01/27 05:06:27;;;;;;;5.80;2.90;;;;;;;0.17;79.46;100307.17;4884023;57;1134650;-95
2021/01/27 05:11:33;;;;;;;4.13;3.63;;;;;;;0.15;79.35;100309.86;4910289;57;1134173;-92
2021/01/27 05:16:38;;;;;;;2.50;2.30;;;;;;;0.14;79.05;100317.72;4941855;58;1134764;-95
2021/01/27 05:21:54;;;;;;;7.23;3.33;;;;;;;0.14;79.08;100315.13;4915321;57;1134267;-94
2021/01/27 05:27:22;;;;;;;11.67;3.67;;;;;;;0.14;78.90;100311.22;4865831;58;1135333;-91
2021/01/27 05:32:28;;;;;;;5.60;3.50;;;;;;;0.15;78.91;100309.02;4830379;58;1136427;-95
2021/01/27 05:37:35;;;;;;;4.57;2.93;;;;;;;0.14;78.70;100313.38;4803674;58;1134219;-92
2021/01/27 05:42:43;;;;;;;2.40;2.20;;;;;;;0.12;78.39;100314.33;4815626;59;1135197;-94
2021/01/27 05:47:48;;;;;;;6.53;3.97;;;;;;;0.12;78.48;100322.98;4900542;57;1134336;-93
2021/01/27 05:52:54;;;;;;;5.97;3.33;;;;;;;0.12;78.62;100327.33;5001622;58;21154;-94
2021/01/27 05:58:01;;;;;;;4.83;3.20;;;;;;;0.11;78.06;100327.78;4887064;57;1139334;-92
2021/01/27 06:03:08;;;;;;;4.40;3.23;;;;;;;0.11;78.21;100326.48;4873808;57;1135088;-93
2021/01/27 06:08:22;;;;;;;3.80;2.57;;;;;;;0.14;78.42;100334.17;4782738;59;1135276;-94
2021/01/27 06:13:32;;;;;;;9.10;4.90;;;;;;;0.15;77.43;100337.17;4833669;59;1134230;-94
2021/01/27 06:18:38;;;;;;;8.37;4.40;;;;;;;0.16;78.14;100345.33;4841213;58;1134378;-91
2021/01/27 06:24:11;;;;;;;8.37;4.07;;;;;;;0.17;77.76;100348.33;4891692;58;1134549;-93
2021/01/27 06:29:36;;;;;;;11.63;5.27;;;;;;;0.18;78.00;100344.83;4913960;57;1134697;-94
2021/01/27 06:35:21;;;;;;;6.20;3.17;;;;;;;0.19;77.76;100349.13;4967782;58;1136400;-91
2021/01/27 06:40:40;;;;;;;6.60;3.92;;;;;;;0.20;76.78;100351.28;4916088;57;1134793;-94
2021/01/27 06:46:08;;;;;;;6.27;3.07;;;;;;;0.20;77.32;100352.13;4887936;58;1134950;-90
2021/01/27 06:52:07;;;;;;;10.00;3.63;;;;;;;0.22;76.69;100358.12;4919337;57;1134140;-91
2021/01/27 06:57:32;;;;;;;6.28;2.80;;;;;;;0.23;76.49;100355.92;4936780;58;1136529;-91
2021/01/27 07:03:20;;;;;;;6.10;3.37;;;;;;;0.25;76.73;100351.51;4969114;57;1134087;-92
2021/01/27 07:08:58;;;;;;;7.83;4.93;;;;;;;0.24;77.15;100356.31;4940234;57;1134413;-93
2021/01/27 07:14:27;;;;;;;11.27;4.50;;;;;;;0.22;77.45;100365.07;4955670;57;1134329;-95
2021/01/27 07:19:49;;;;;;;15.13;4.63;;;;;;;0.22;77.72;100369.82;4688311;60;1137755;-94
2021/01/27 07:25:26;;;;;;;10.80;3.80;;;;;;;0.22;77.81;100369.82;4683966;61;1136441;-95
2021/01/27 07:37:18;;;;;;;10.30;5.47;;;;;;;0.20;78.31;100369.48;4729611;59;21779;-93
2021/01/27 07:42:49;;;;;;;14.07;6.25;;;;;;;0.21;78.65;100372.48;4609208;61;1132335;-94
2021/01/27 07:48:23;;;;;;;21.97;9.27;;;;;;;0.20;78.83;100370.33;4545655;62;1137391;-96
2021/01/27 07:53:38;;;;;;;9.17;4.60;;;;;;;0.20;79.20;100371.63;4607029;62;1136440;-94
2021/01/27 07:58:58;;;;;;;17.80;7.63;;;;;;;0.19;79.69;100375.58;4760356;59;1134253;-95
2021/01/27 08:04:31;;;;;;;22.60;9.33;;;;;;;0.19;79.85;100379.48;4832050;59;1132118;-95
2021/01/27 08:09:42;;;;;;;;;;;;;;;0.22;80.30;100376.78;4702046;60;1136539;-94
2021/01/27 08:15:09;;;;;;;18.03;6.53;;;;;;;0.25;80.55;100390.52;4778115;58;971614;-93
2021/01/27 08:20:39;;;;;;;8.38;5.15;;;;;;;0.28;80.71;100395.61;4727217;60;1135668;-94
2021/01/27 08:26:08;;;;;;;11.93;4.80;;;;;;;0.30;80.96;100388.61;4778024;59;1134228;-93
2021/01/27 08:31:20;;;;;;;8.38;4.36;;;;;;;0.35;81.30;100393.16;4767767;59;1136634;-93
2021/01/27 08:36:55;;;;;;;9.20;4.33;;;;;;;0.35;81.32;100383.20;4764952;59;1137872;-94
2021/01/27 08:42:25;;;;;;;10.97;5.37;;;;;;;0.42;81.14;100388.59;4617913;62;1134199;-94
2021/01/27 08:47:45;;;;;;;11.77;5.20;;;;;;;0.48;81.20;100384.43;4706649;60;1136647;-93
2021/01/27 08:52:51;;;;;;;8.37;4.00;;;;;;;0.51;81.11;100397.78;4614724;62;1134406;-93
2021/01/27 08:58:42;;;;;;;6.40;2.67;;;;;;;0.55;81.08;100408.02;4513566;62;1134331;-92
2021/01/27 09:03:54;;;;;;;13.60;3.33;;;;;;;0.56;81.13;100409.72;4497134;63;1134751;-93
2021/01/27 09:15:24;;;;;;;7.47;3.53;;;;;;;0.64;81.13;100408.11;4474749;63;21216;-87
2021/01/27 09:20:33;;;;;;;10.13;2.63;;;;;;;0.70;81.08;100413.09;4484917;65;21173;-86
2021/01/27 09:25:48;;;;;;;8.00;2.73;;;;;;;0.76;80.97;100401.60;4478283;64;21266;-85
2021/01/27 09:30:55;;;;;;;10.77;3.97;;;;;;;0.84;81.21;100402.13;4468644;65;21222;-85
2021/01/27 09:36:11;;;;;;;6.93;3.20;;;;;;;0.98;80.89;100407.64;4476015;64;21185;-86
2021/01/27 09:41:21;;;;;;;5.60;2.83;;;;;;;1.08;80.73;100408.11;4453526;64;21169;-86
2021/01/27 09:46:36;;;;;;;5.93;2.30;;;;;;;1.20;80.27;100401.12;4466068;65;21868;-86
2021/01/27 09:51:52;;;;;;;3.37;2.00;;;;;;;1.24;79.39;100410.48;4450516;63;21544;-86
2021/01/27 09:57:01;;;;;;;8.90;3.67;;;;;;;1.30;78.86;100408.48;4684075;62;21414;-86
2021/01/27 10:02:12;;;;;;;10.07;3.27;;;;;;;1.48;79.19;100403.42;4766597;60;21231;-85
2021/01/27 10:07:25;;;;;;;8.33;2.50;;;;;;;1.51;77.79;100408.05;4788999;59;21184;-86
2021/01/27 10:12:33;;;;;;;2.58;1.90;;;;;;;1.64;79.16;100403.16;4792289;60;21232;-85
2021/01/27 10:17:39;;;;;;;10.23;3.00;;;;;;;1.79;78.40;100399.89;4805549;60;21206;-86
2021/01/27 10:22:58;;;;;;;9.80;3.00;;;;;;;1.88;78.22;100389.51;4776806;60;21234;-86
2021/01/27 10:28:08;;;;;;;5.90;2.77;;;;;;;1.89;77.01;100395.96;4834232;60;21105;-85
2021/01/27 10:33:53;;;;;;;8.10;4.70;;;;;;;1.94;76.79;100387.49;4814955;60;21470;-86
2021/01/27 10:39:29;;;;;;;8.73;3.30;;;;;;;1.96;76.34;100386.13;4752999;60;21562;-86
2021/01/27 10:44:38;;;;;;;6.30;2.53;;;;;;;2.02;77.08;100375.40;4779906;60;21205;-86
2021/01/27 10:49:47;;;;;;;8.73;4.63;;;;;;;2.11;75.44;100369.78;4779329;60;21161;-86
2021/01/27 10:54:59;;;;;;;5.43;2.97;;;;;;;2.21;75.23;100366.29;4785419;60;21183;-85
2021/01/27 11:00:15;;;;;;;6.67;1.43;;;;;;;2.33;75.04;100365.72;4795907;60;21473;-86
2021/01/27 11:05:21;;;;;;;5.77;2.40;;;;;;;2.37;72.21;100364.67;4802027;60;21592;-86
2021/01/27 11:10:26;;;;;;;7.87;2.47;;;;;;;2.41;72.62;100367.53;4786121;60;21493;-85
2021/01/27 11:15:32;;;;;;;7.07;2.47;;;;;;;2.41;71.98;100359.70;4774397;60;21223;-86
2021/01/27 11:20:38;;;;;;;5.10;2.03;;;;;;;2.41;71.71;100363.16;4770759;60;21621;-85
2021/01/27 11:25:44;;;;;;;8.70;1.87;;;;;;;2.39;71.84;100361.53;4805105;60;21252;-86
2021/01/27 11:30:50;;;;;;;7.13;2.17;;;;;;;2.41;71.09;100362.31;4782348;60;21247;-85
2021/01/27 11:35:56;;;;;;;1.60;1.50;;;;;;;2.48;71.33;100361.09;4791827;60;21167;-85
2021/01/27 11:41:02;;;;;;;13.80;3.60;;;;;;;2.60;70.33;100361.00;4761114;60;21266;-85
2021/01/27 11:46:10;;;;;;;5.60;2.53;;;;;;;2.73;69.90;100360.34;4785503;60;21482;-85
2021/01/27 11:51:16;;;;;;;6.30;2.50;;;;;;;2.85;69.83;100356.28;4770767;60;21522;-86
2021/01/27 11:56:22;;;;;;;3.87;1.60;;;;;;;2.98;70.87;100357.38;4791653;60;21196;-86
2021/01/27 12:01:29;;;;;;;13.90;6.40;;;;;;;3.04;66.80;100366.69;4699770;61;21224;-86
2021/01/27 12:06:35;;;;;;;5.97;2.03;;;;;;;3.02;68.12;100371.98;4684142;61;21213;-86
2021/01/27 12:11:41;;;;;;;4.07;1.40;;;;;;;3.00;67.92;100368.59;4718396;62;21147;-85
2021/01/27 12:16:46;;;;;;;3.33;1.17;;;;;;;3.01;67.03;100373.36;4714800;62;21258;-86
2021/01/27 12:21:52;;;;;;;4.40;1.33;;;;;;;3.00;65.93;100362.53;4786030;60;21282;-85
2021/01/27 12:26:58;;;;;;;5.83;2.83;;;;;;;2.96;64.46;100369.66;4682759;61;21580;-86
2021/01/27 12:32:03;;;;;;;2.77;1.27;;;;;;;2.94;64.96;100370.19;4769350;60;21145;-86
2021/01/27 12:37:09;;;;;;;5.67;1.10;;;;;;;2.94;65.75;100366.73;4767670;60;21171;-85
2021/01/27 12:42:15;;;;;;;1.80;0.93;;;;;;;2.96;64.65;100354.45;4767047;60;21156;-86
2021/01/27 12:47:22;;;;;;;2.60;1.53;;;;;;;2.96;64.25;100355.30;4790537;60;21204;-86
2021/01/27 12:52:28;;;;;;;13.73;3.63;;;;;;;3.00;64.97;100355.54;4780831;60;21129;-86
2021/01/27 12:57:40;;;;;;;3.60;1.40;;;;;;;3.08;65.09;100354.69;4792619;60;21672;-85
2021/01/27 13:02:41;;;;;;;4.17;2.00;;;;;;;3.28;64.37;100355.01;4798324;60;21522;-85
2021/01/27 13:07:47;;;;;;;1.53;1.00;;;;;;;3.43;63.97;100359.47;4812586;60;21208;-85
2021/01/27 13:12:54;;;;;;;0.37;0.30;;;;;;;3.36;62.70;100371.63;4794203;60;21479;-84
2021/01/27 13:17:59;;;;;;;0.70;0.70;;;;;;;3.22;61.51;100374.06;4788972;59;21163;-85
2021/01/27 13:23:05;;;;;;;1.67;1.00;;;;;;;3.11;61.75;100378.06;4785817;60;21132;-84
2021/01/27 13:28:11;;;;;;;9.80;3.27;;;;;;;3.02;63.47;100382.90;4799708;60;21176;-85
2021/01/27 13:33:17;;;;;;;1.70;0.73;;;;;;;2.97;62.75;100373.13;4794238;60;21152;-86
2021/01/27 13:38:23;;;;;;;5.57;1.23;;;;;;;3.04;62.01;100375.38;4796207;60;21176;-85
2021/01/27 13:43:29;;;;;;;6.10;2.33;;;;;;;3.00;61.61;100376.89;4796445;60;21148;-85
2021/01/27 13:48:34;;;;;;;27.80;9.83;;;;;;;2.87;62.93;100375.80;4759882;60;21565;-84
2021/01/27 13:53:40;;;;;;;45.53;17.63;;;;;;;2.80;62.59;100368.70;4779644;60;21196;-85
2021/01/27 14:03:35;;;;;;;14.50;7.97;;;;;;;2.73;62.81;100377.31;5396875;54;21167;-86
2021/01/27 14:08:40;;;;;;;22.53;11.43;;;;;;;2.64;62.67;100381.64;5121475;57;21174;-86
2021/01/27 14:13:46;;;;;;;110.37;44.80;;;;;;;2.60;63.89;100382.70;5212019;56;21116;-86
2021/01/27 14:18:53;;;;;;;14.70;5.60;;;;;;;2.57;63.74;100383.33;5134117;56;21462;-85
2021/01/27 14:23:59;;;;;;;61.43;21.47;;;;;;;2.57;64.29;100387.25;5191111;56;21135;-85
2021/01/27 14:29:04;;;;;;;121.33;43.37;;;;;;;2.88;64.19;100384.88;5210881;55;21167;-85
2021/01/27 14:34:10;;;;;;;229.03;83.23;;;;;;;2.85;62.93;100390.70;5124552;56;21132;-85
2021/01/27 14:39:16;;;;;;;180.93;75.03;;;;;;;2.89;64.29;100375.27;5187736;56;21291;-85
2021/01/27 14:44:21;;;;;;;81.73;35.17;;;;;;;2.94;63.17;100375.42;5132387;57;21449;-86
2021/01/27 14:49:27;;;;;;;61.57;29.37;;;;;;;2.89;64.07;100379.19;5187649;56;21139;-85
2021/01/27 14:54:38;;;;;;;76.10;38.03;;;;;;;2.82;64.12;100374.25;5188547;57;21140;-85
2021/01/27 15:06:15;;;;;;;52.47;20.43;;;;;;;2.56;64.19;100380.33;4559903;64;21215;-84
2021/01/27 15:11:21;;;;;;;21.90;8.10;;;;;;;2.46;64.31;100377.28;4548006;64;21212;-83
2021/01/27 15:16:27;;;;;;;43.73;13.87;;;;;;;2.37;64.47;100380.33;4548618;64;21228;-83
2021/01/27 15:21:33;;;;;;;58.13;17.80;;;;;;;2.29;64.48;100384.58;4549909;64;21192;-84
2021/01/27 15:26:39;;;;;;;29.57;13.07;;;;;;;2.22;64.75;100382.34;4555642;64;21144;-84
2021/01/27 15:31:45;;;;;;;27.00;13.57;;;;;;;2.18;65.26;100382.92;4546914;64;21212;-84
2021/01/27 15:36:52;;;;;;;54.43;20.47;;;;;;;2.15;65.12;100376.98;4549447;64;21246;-84
2021/01/27 15:41:59;;;;;;;336.40;171.93;;;;;;;2.14;65.37;100377.45;4817396;58;21791;-84
2021/01/27 15:47:05;;;;;;;14.87;6.30;;;;;;;2.11;65.84;100375.85;5031381;58;21199;-83
2021/01/27 15:52:10;;;;;;;45.83;21.70;;;;;;;2.09;65.99;100382.05;5021334;58;21190;-83
2021/01/27 15:57:16;;;;;;;22.83;9.60;;;;;;;2.10;66.58;100377.22;5018164;58;21144;-83
2021/01/27 16:02:22;;;;;;;17.93;7.90;;;;;;;2.15;66.82;100378.30;5177281;55;21071;-83
2021/01/27 16:13:11;;;;;;;18.43;7.80;;;;;;;2.20;67.29;100376.34;4770599;58;1134493;-84
2021/01/27 16:18:18;;;;;;;73.17;25.47;;;;;;;2.21;67.43;100378.03;4749223;61;1136191;-83
2021/01/27 16:23:23;;;;;;;142.13;43.77;;;;;;;2.13;67.32;100375.78;4770113;60;1201960;-83
2021/01/27 16:28:30;;;;;;;184.15;58.25;;;;;;;2.04;67.43;100367.90;4740811;59;1140904;-83
2021/01/27 16:33:36;;;;;;;156.17;57.97;;;;;;;1.93;67.43;100366.69;4700277;59;1140509;-84
2021/01/27 16:38:54;;;;;;;237.27;80.73;;;;;;;1.82;67.77;100371.09;4659336;59;1140523;-84
2021/01/27 16:43:59;;;;;;;237.10;82.97;;;;;;;1.78;67.97;100380.41;4689741;60;1140543;-84
2021/01/27 16:49:05;;;;;;;299.57;107.67;;;;;;;1.73;68.08;100369.71;4719490;61;1140767;-83
2021/01/27 16:54:11;;;;;;;146.10;60.40;;;;;;;1.68;67.83;100369.55;4721757;61;1143206;-83
2021/01/27 16:59:16;;;;;;;172.67;72.17;;;;;;;1.53;67.94;100370.20;4642673;62;1140556;-84
2021/01/27 17:04:22;;;;;;;290.33;106.87;;;;;;;1.46;68.08;100370.91;4857576;59;1141091;-84
2021/01/27 17:09:29;;;;;;;249.63;99.60;;;;;;;1.37;68.12;100368.25;4875770;58;1142449;-84
2021/01/27 17:14:34;;;;;;;222.63;90.17;;;;;;;1.28;68.31;100364.71;4880367;58;1140804;-84
2021/01/27 17:19:40;;;;;;;123.70;43.03;;;;;;;1.25;68.60;100363.53;4869660;58;1140486;-83
2021/01/27 17:24:46;;;;;;;235.27;99.77;;;;;;;1.11;68.49;100368.47;4893912;58;1141246;-84
2021/01/27 17:29:51;;;;;;;321.60;123.70;;;;;;;1.01;68.62;100365.86;4825842;59;1140599;-83
2021/01/27 17:34:57;;;;;;;136.00;55.30;;;;;;;0.98;68.97;100368.12;4837248;59;1142446;-84
2021/01/27 17:40:04;;;;;;;260.20;89.03;;;;;;;0.96;69.31;100357.38;4926224;58;1140612;-84
2021/01/27 17:45:11;;;;;;;192.07;50.57;;;;;;;0.99;69.59;100363.77;4885553;59;1140362;-84
2021/01/27 17:50:22;;;;;;;153.93;43.20;;;;;;;0.83;69.01;100360.94;4940920;58;1140495;-84
2021/01/27 17:55:31;;;;;;;136.67;39.20;;;;;;;0.78;69.46;100361.56;4862028;59;1140498;-85
2021/01/27 18:00:38;;;;;;;844.55;332.50;;;;;;;0.75;69.74;100363.47;4889949;59;1141370;-84
2021/01/27 18:05:45;;;;;;;324.77;114.67;;;;;;;0.63;69.72;100363.02;4897464;59;1142553;-84
2021/01/27 18:10:50;;;;;;;362.47;106.70;;;;;;;0.64;70.31;100365.17;4889076;58;1142991;-85
2021/01/27 18:15:57;;;;;;;140.23;47.30;;;;;;;0.65;70.48;100361.20;4878878;59;1142445;-86
2021/01/27 18:21:03;;;;;;;140.57;49.30;;;;;;;0.63;70.31;100359.11;4883774;59;1140518;-86
2021/01/27 18:26:09;;;;;;;221.57;79.92;;;;;;;0.58;70.61;100360.22;4894699;59;1140382;-85
2021/01/27 18:31:16;;;;;;;196.03;67.23;;;;;;;0.57;70.76;100355.47;4928655;58;1140339;-85
2021/01/27 18:36:21;;;;;;;693.43;244.63;;;;;;;0.55;70.89;100354.68;4829338;59;1140521;-86
2021/01/27 18:41:27;;;;;;;637.52;213.00;;;;;;;0.50;70.94;100347.50;4863321;59;1142410;-86
2021/01/27 18:46:33;;;;;;;410.60;121.07;;;;;;;0.46;70.86;100344.61;4873024;59;1142900;-86
2021/01/27 18:51:39;;;;;;;270.97;88.35;;;;;;;0.29;70.64;100353.09;4919292;58;1143040;-86
2021/01/27 18:56:44;;;;;;;277.75;88.97;;;;;;;0.12;70.78;100353.33;4884713;58;1140679;-87
2021/01/27 19:01:50;;;;;;;316.90;102.77;;;;;;;0.14;71.68;100348.47;4842800;58;1140354;-87
2021/01/27 19:06:55;;;;;;;305.63;96.13;;;;;;;0.20;71.85;100343.02;4902261;58;1142951;-86
2021/01/27 19:12:01;;;;;;;465.83;147.60;;;;;;;0.26;71.97;100335.00;4901025;58;1141071;-85
2021/01/27 19:17:10;;;;;;;714.67;264.63;;;;;;;0.25;71.58;100331.16;4903304;58;1142733;-85
2021/01/27 19:22:14;;;;;;;1421.80;584.93;;;;;;;0.19;71.81;100327.47;4864681;58;1142980;-86
2021/01/27 19:27:20;;;;;;;524.25;194.28;;;;;;;0.17;72.18;100333.19;4879332;59;1144998;-86
2021/01/27 19:32:26;;;;;;;421.63;140.10;;;;;;;0.20;72.32;100339.58;4779584;59;1142462;-86
2021/01/27 19:37:31;;;;;;;654.47;243.47;;;;;;;0.17;72.29;100343.13;4736794;59;1142650;-86
2021/01/27 19:42:37;;;;;;;800.97;320.07;;;;;;;0.18;72.40;100332.28;4872280;59;1142993;-85
2021/01/27 19:47:43;;;;;;;568.20;218.83;;;;;;;0.21;72.71;100331.72;4877546;59;1142735;-85
2021/01/27 19:52:49;;;;;;;465.37;169.80;;;;;;;0.27;72.82;100330.64;4890865;59;1143154;-85
2021/01/27 19:57:56;;;;;;;267.57;99.17;;;;;;;0.23;72.76;100318.20;4861222;59;1142802;-85
2021/01/27 20:03:03;;;;;;;175.80;66.17;;;;;;;0.19;73.07;100308.82;4865868;59;1140853;-85
2021/01/27 20:08:12;;;;;;;158.87;55.53;;;;;;;0.21;73.38;100302.27;4859626;59;1140518;-85
2021/01/27 20:13:21;;;;;;;196.40;65.77;;;;;;;0.23;73.55;100306.50;4764214;60;1140668;-85
2021/01/27 20:18:30;;;;;;;217.33;72.23;;;;;;;0.27;73.80;100298.98;4851059;59;1140605;-85
2021/01/27 20:23:36;;;;;;;137.33;50.47;;;;;;;0.35;73.99;100299.52;4905659;58;1141232;-84
2021/01/27 20:28:41;;;;;;;191.43;68.57;;;;;;;0.42;74.06;100294.09;4882767;58;1140607;-85
2021/01/27 20:33:47;;;;;;;179.03;66.40;;;;;;;0.43;74.03;100288.83;4879795;59;1140599;-85
2021/01/27 20:38:53;;;;;;;109.73;45.90;;;;;;;0.44;74.03;100289.22;4882077;59;1140618;-85
2021/01/27 20:43:58;;;;;;;105.97;43.73;;;;;;;0.45;74.10;100284.86;4889124;58;1140401;-85
2021/01/27 20:49:04;;;;;;;63.33;29.47;;;;;;;0.48;74.17;100289.47;4836655;58;1140585;-89
2021/01/27 20:54:10;;;;;;;216.43;81.67;;;;;;;0.46;74.15;100283.95;4884300;58;1138254;-89
2021/01/27 20:59:16;;;;;;;153.20;56.87;;;;;;;0.45;74.29;100280.96;4848866;58;1140533;-90
2021/01/27 21:04:22;;;;;;;115.77;49.80;;;;;;;0.44;74.23;100284.02;4877758;58;1140393;-89
2021/01/27 21:09:27;;;;;;;89.07;37.60;;;;;;;0.38;74.32;100274.30;4992606;59;21541;-89
2021/01/27 21:14:33;;;;;;;85.57;35.67;;;;;;;0.34;74.47;100267.06;4809792;59;1134812;-89
2021/01/27 21:19:40;;;;;;;103.33;38.43;;;;;;;0.22;74.58;100257.15;4849435;59;1138399;-88
2021/01/27 21:24:45;;;;;;;96.50;38.50;;;;;;;0.21;74.62;100278.41;4967067;59;21203;-89
2021/01/27 21:29:51;;;;;;;81.93;32.23;;;;;;;0.12;74.94;100274.87;4960580;59;21254;-89
2021/01/27 21:34:57;;;;;;;97.87;40.33;;;;;;;0.04;75.26;100270.86;4872047;58;1134287;-89
2021/01/27 21:40:03;;;;;;;106.53;42.07;;;;;;;0.04;75.58;100266.50;4774499;59;1138382;-88
2021/01/27 21:45:13;;;;;;;156.03;62.00;;;;;;;0.13;75.86;100268.77;4866018;60;21152;-88
2021/01/27 21:50:20;;;;;;;153.73;63.40;;;;;;;0.23;76.17;100266.64;4885792;59;1136608;-89
2021/01/27 21:55:26;;;;;;;110.07;49.73;;;;;;;0.30;76.24;100255.95;4914121;59;1140593;-89
2021/01/27 22:00:32;;;;;;;70.63;32.73;;;;;;;0.34;76.22;100243.65;4909185;58;1140647;-89
2021/01/27 22:05:39;;;;;;;96.27;39.17;;;;;;;0.32;76.71;100240.26;4918272;59;1138286;-88
2021/01/27 22:10:44;;;;;;;108.13;43.90;;;;;;;0.34;76.42;100244.50;4914965;59;1147932;-88
2021/01/27 22:15:50;;;;;;;106.87;47.75;;;;;;;0.30;76.33;100239.50;4945067;58;1141036;-88
2021/01/27 22:20:55;;;;;;;81.10;35.97;;;;;;;0.29;76.71;100223.50;4914121;58;1140502;-88
2021/01/27 22:26:01;;;;;;;105.43;44.90;;;;;;;0.28;76.46;100234.36;4939928;58;1138353;-88
2021/01/27 22:31:07;;;;;;;81.67;36.73;;;;;;;0.20;76.40;100236.85;4936419;59;1140477;-89
2021/01/27 22:36:13;;;;;;;81.70;38.03;;;;;;;0.12;76.34;100231.97;4895477;59;1138557;-89
2021/01/27 22:41:19;;;;;;;79.07;35.17;;;;;;;0.08;76.51;100232.98;4967463;59;1136383;-89
2021/01/27 22:46:25;;;;;;;81.77;33.87;;;;;;;0.07;76.47;100226.55;4971011;59;21425;-89
2021/01/27 22:51:30;;;;;;;69.70;31.80;;;;;;;-0.01;76.62;100214.71;4957759;60;21532;-89
2021/01/27 22:56:36;;;;;;;79.23;34.23;;;;;;;-0.11;76.53;100207.31;4958184;60;21156;-89
2021/01/27 23:01:41;;;;;;;78.13;31.47;;;;;;;-0.25;76.76;100197.45;4893539;59;1136495;-90
2021/01/27 23:06:47;;;;;;;70.40;28.37;;;;;;;-0.32;77.06;100189.97;4868470;58;1140340;-88
2021/01/27 23:11:53;;;;;;;71.17;32.03;;;;;;;-0.40;77.27;100186.34;4935277;58;1140777;-89
2021/01/27 23:16:58;;;;;;;72.80;30.13;;;;;;;-0.47;77.49;100184.45;4869282;58;1140342;-90
2021/01/27 23:22:04;;;;;;;74.60;29.00;;;;;;;-0.50;77.61;100179.81;4942510;59;1138537;-91
2021/01/27 23:27:11;;;;;;;64.03;27.13;;;;;;;-0.53;78.12;100172.98;4972393;59;21507;-89
2021/01/27 23:32:17;;;;;;;75.40;32.23;;;;;;;-0.58;78.37;100165.80;4923262;59;1136262;-88
2021/01/27 23:37:22;;;;;;;76.60;31.60;;;;;;;-0.59;78.05;100165.86;4949635;59;1138470;-89
2021/01/27 23:42:28;;;;;;;84.80;34.60;;;;;;;-0.64;78.35;100168.65;4975987;59;21531;-88
2021/01/27 23:47:34;;;;;;;56.10;23.03;;;;;;;-0.67;78.39;100162.71;4900567;59;1136233;-89
2021/01/27 23:52:40;;;;;;;67.27;31.33;;;;;;;-0.71;79.10;100163.27;4928519;59;1140278;-89
2021/01/27 23:57:46;;;;;;;72.13;32.70;;;;;;;-0.73;78.82;100158.13;4898779;60;1140681;-88
